createdAt,value
2022-11-21T00:01:40.782Z,-1.58
2022-11-21T00:04:43.280Z,-1.59
2022-11-21T00:07:46.159Z,-1.67
2022-11-21T00:10:48.899Z,-1.80
2022-11-21T00:13:51.352Z,-1.74
2022-11-21T00:16:57.372Z,-1.79
2022-11-21T00:20:00.110Z,-1.63
2022-11-21T00:23:02.952Z,-1.61
2022-11-21T00:26:06.758Z,-1.43
2022-11-21T00:29:09.576Z,-1.47
2022-11-21T00:32:12.027Z,-1.49
2022-11-21T00:35:14.457Z,-1.69
2022-11-21T00:38:16.953Z,-1.83
2022-11-21T00:41:19.465Z,-1.96
2022-11-21T00:44:21.900Z,-1.92
2022-11-21T00:47:24.387Z,-1.98
2022-11-21T00:50:26.784Z,-1.94
2022-11-21T00:53:29.881Z,-2.03
2022-11-21T00:56:32.316Z,-2.07
2022-11-21T00:59:34.792Z,-2.26
2022-11-21T01:02:37.213Z,-2.32
2022-11-21T01:05:39.741Z,-2.29
2022-11-21T01:08:43.679Z,-2.38
2022-11-21T01:11:46.122Z,-2.59
2022-11-21T01:14:48.797Z,-2.62
2022-11-21T01:17:51.196Z,-2.63
2022-11-21T01:20:53.592Z,-2.68
2022-11-21T01:23:56.356Z,-2.67
2022-11-21T01:26:58.897Z,-2.66
2022-11-21T01:30:01.371Z,-2.64
2022-11-21T01:33:03.772Z,-2.70
2022-11-21T01:36:14.004Z,-2.52
2022-11-21T01:39:16.540Z,-2.59
2022-11-21T01:42:18.961Z,-2.56
2022-11-21T01:45:49.286Z,-2.39
2022-11-21T01:48:56.091Z,-2.30
2022-11-21T01:51:58.457Z,-2.31
2022-11-21T01:55:08.155Z,-2.38
2022-11-21T01:58:11.078Z,-2.41
2022-11-21T02:01:13.766Z,-2.56
2022-11-21T02:04:16.986Z,-2.68
2022-11-21T02:07:21.455Z,-2.60
2022-11-21T02:10:24.178Z,-2.72
2022-11-21T02:13:26.850Z,-2.61
2022-11-21T02:16:29.577Z,-2.57
2022-11-21T02:19:55.832Z,-2.36
2022-11-21T02:23:19.458Z,-2.39
2022-11-21T02:26:21.937Z,-2.34
2022-11-21T02:29:24.484Z,-2.44
2022-11-21T02:32:34.217Z,-2.51
2022-11-21T02:35:36.805Z,-2.52
2022-11-21T02:38:39.455Z,-2.26
2022-11-21T02:41:48.962Z,-2.27
2022-11-21T02:45:14.170Z,-2.31
2022-11-21T02:48:16.653Z,-2.49
2022-11-21T02:51:19.079Z,-2.50
2022-11-21T02:54:21.554Z,-2.49
2022-11-21T02:57:23.968Z,-2.47
2022-11-21T03:00:26.445Z,-2.48
2022-11-21T03:03:28.902Z,-2.68
2022-11-21T03:06:31.310Z,-2.49
2022-11-21T03:09:33.776Z,-2.58
2022-11-21T03:12:40.095Z,-2.41
2022-11-21T03:15:42.570Z,-2.35
2022-11-21T03:18:45.139Z,-2.55
2022-11-21T03:21:47.551Z,-2.35
2022-11-21T03:24:49.906Z,-2.53
2022-11-21T03:27:56.006Z,-2.61
2022-11-21T03:30:58.482Z,-2.53
2022-11-21T03:34:00.995Z,-2.33
2022-11-21T03:37:03.874Z,-2.13
2022-11-21T03:40:07.141Z,-2.24
2022-11-21T03:43:09.695Z,-2.43
2022-11-21T03:46:12.070Z,-2.24
2022-11-21T03:49:16.673Z,-2.46
2022-11-21T03:52:19.140Z,-2.36
2022-11-21T03:55:21.913Z,-2.36
2022-11-21T03:58:24.311Z,-2.44
2022-11-21T04:01:26.754Z,-2.30
2022-11-21T04:04:29.580Z,-2.12
2022-11-21T04:07:32.336Z,-2.03
2022-11-21T04:10:34.842Z,-2.10
2022-11-21T04:13:37.801Z,-2.27
2022-11-21T04:16:40.265Z,-2.50
2022-11-21T04:19:42.703Z,-2.66
2022-11-21T04:22:45.257Z,-2.67
2022-11-21T04:25:47.701Z,-2.70
2022-11-21T04:28:50.193Z,-2.70
2022-11-21T04:31:52.588Z,-2.89
2022-11-21T04:34:54.989Z,-2.88
2022-11-21T04:37:57.402Z,-2.98
2022-11-21T04:40:59.917Z,-3.05
2022-11-21T04:44:02.313Z,-3.01
2022-11-21T04:47:05.723Z,-3.11
2022-11-21T04:50:09.837Z,-3.04
2022-11-21T04:53:12.335Z,-2.88
2022-11-21T04:56:16.642Z,-2.61
2022-11-21T04:59:19.452Z,-2.52
2022-11-21T05:02:22.405Z,-2.52
2022-11-21T05:05:24.818Z,-2.76
2022-11-21T05:08:27.313Z,-2.80
2022-11-21T05:11:48.330Z,-3.07
2022-11-21T05:14:50.741Z,-3.01
2022-11-21T05:17:53.222Z,-3.15
2022-11-21T05:20:55.731Z,-2.95
2022-11-21T05:23:58.259Z,-3.11
2022-11-21T05:27:00.659Z,-2.97
2022-11-21T05:30:03.265Z,-2.82
2022-11-21T05:33:05.789Z,-2.83
2022-11-21T05:36:08.229Z,-2.96
2022-11-21T05:39:10.649Z,-2.91
2022-11-21T05:42:13.018Z,-3.14
2022-11-21T05:45:15.517Z,-3.06
2022-11-21T05:48:18.403Z,-3.15
2022-11-21T05:51:21.879Z,-3.24
2022-11-21T05:54:24.236Z,-3.14
2022-11-21T05:57:26.653Z,-3.23
2022-11-21T06:00:29.372Z,-3.33
2022-11-21T06:03:34.481Z,-3.37
2022-11-21T06:06:37.375Z,-3.20
2022-11-21T06:09:39.842Z,-3.14
2022-11-21T06:12:42.233Z,-3.14
2022-11-21T06:15:44.654Z,-3.07
2022-11-21T06:18:50.026Z,-3.15
2022-11-21T06:21:54.096Z,-2.89
2022-11-21T06:24:56.575Z,-2.89
2022-11-21T06:28:01.888Z,-3.00
2022-11-21T06:31:08.589Z,-2.70
2022-11-21T06:34:10.942Z,-2.48
2022-11-21T06:37:13.381Z,-2.33
2022-11-21T06:40:15.919Z,-2.32
2022-11-21T06:43:18.367Z,-2.29
2022-11-21T06:46:20.857Z,-2.22
2022-11-21T06:49:23.350Z,-2.05
2022-11-21T06:52:25.848Z,-1.81
2022-11-21T06:55:29.854Z,-1.91
2022-11-21T06:58:32.434Z,-1.81
2022-11-21T07:01:35.003Z,-2.08
2022-11-21T07:04:37.575Z,-2.09
2022-11-21T07:07:41.077Z,-1.77
2022-11-21T07:11:10.184Z,-2.02
2022-11-21T07:14:10.795Z,-2.08
2022-11-21T07:17:15.915Z,-2.08
2022-11-21T07:20:18.623Z,-1.71
2022-11-21T07:23:21.049Z,-1.42
2022-11-21T07:26:24.459Z,-1.23
2022-11-21T07:29:27.368Z,-1.17
2022-11-21T07:32:30.094Z,-1.20
2022-11-21T07:35:33.306Z,-1.32
2022-11-21T07:38:35.895Z,-1.19
2022-11-21T07:41:38.668Z,-0.99
2022-11-21T07:44:41.161Z,-0.92
2022-11-21T07:47:43.650Z,-1.11
2022-11-21T07:50:46.231Z,-0.82
2022-11-21T07:53:48.698Z,-0.62
2022-11-21T07:56:51.204Z,-0.69
2022-11-21T07:59:54.257Z,-0.71
2022-11-21T08:02:57.103Z,-0.70
2022-11-21T08:06:04.078Z,-0.63
2022-11-21T08:09:07.822Z,-0.59
2022-11-21T08:12:11.553Z,-0.64
2022-11-21T08:15:14.112Z,-0.45
2022-11-21T08:18:20.957Z,-0.43
2022-11-21T08:21:23.331Z,-0.45
2022-11-21T08:24:26.077Z,-0.52
2022-11-21T08:27:31.508Z,-0.60
2022-11-21T08:30:34.361Z,-0.42
2022-11-21T08:33:37.061Z,-0.48
2022-11-21T08:36:39.626Z,-0.40
2022-11-21T08:39:42.324Z,-0.28
2022-11-21T08:42:45.057Z,0.14
2022-11-21T08:45:47.526Z,0.24
2022-11-21T08:48:50.552Z,0.23
2022-11-21T08:51:53.438Z,0.29
2022-11-21T08:54:56.161Z,0.15
2022-11-21T08:57:59.602Z,0.25
2022-11-21T09:01:02.360Z,0.24
2022-11-21T09:04:05.853Z,0.58
2022-11-21T09:07:08.437Z,0.89
2022-11-21T09:10:11.939Z,1.04
2022-11-21T09:13:15.093Z,0.86
2022-11-21T09:16:35.844Z,1.11
2022-11-21T09:19:38.569Z,1.03
2022-11-21T09:22:41.894Z,1.43
2022-11-21T09:25:45.010Z,1.38
2022-11-21T09:28:47.603Z,1.58
2022-11-21T09:31:50.225Z,1.77
2022-11-21T09:34:52.651Z,2.06
2022-11-21T09:37:55.142Z,1.98
2022-11-21T09:41:32.576Z,1.97
2022-11-21T09:45:04.119Z,2.04
2022-11-21T09:48:13.004Z,2.18
2022-11-21T09:51:17.563Z,2.20
2022-11-21T09:54:27.053Z,2.50
2022-11-21T09:57:34.786Z,2.72
2022-11-21T10:00:37.605Z,3.21
2022-11-21T10:03:43.814Z,3.60
2022-11-21T10:06:52.656Z,3.88
2022-11-21T10:10:18.395Z,3.81
2022-11-21T10:13:43.410Z,3.89
2022-11-21T10:17:12.229Z,4.03
2022-11-21T10:20:14.875Z,4.07
2022-11-21T10:23:38.475Z,4.07
2022-11-21T10:27:03.082Z,4.14
2022-11-21T10:30:07.502Z,4.02
2022-11-21T10:33:16.198Z,4.31
2022-11-21T10:36:34.731Z,4.68
2022-11-21T10:39:49.333Z,4.67
2022-11-21T10:43:20.992Z,4.77
2022-11-21T10:46:23.792Z,5.03
2022-11-21T10:49:29.822Z,5.14
2022-11-21T10:52:36.459Z,4.84
2022-11-21T10:55:56.676Z,4.41
2022-11-21T10:58:59.810Z,4.08
2022-11-21T11:02:24.309Z,3.90
2022-11-21T11:05:28.759Z,3.98
2022-11-21T11:08:50.551Z,3.76
2022-11-21T11:11:53.104Z,3.88
2022-11-21T11:14:56.577Z,4.43
2022-11-21T11:18:09.023Z,4.35
2022-11-21T11:21:19.418Z,4.99
2022-11-21T11:24:29.458Z,5.00
2022-11-21T11:27:32.192Z,4.96
2022-11-21T11:30:38.234Z,5.03
2022-11-21T11:33:50.473Z,5.11
2022-11-21T11:37:15.271Z,5.14
2022-11-21T11:40:37.534Z,5.35
2022-11-21T11:44:22.575Z,5.32
2022-11-21T11:47:30.905Z,5.17
2022-11-21T11:50:57.995Z,5.06
2022-11-21T11:54:09.345Z,5.11
2022-11-21T11:57:17.730Z,5.14
2022-11-21T12:00:31.171Z,5.42
2022-11-21T12:03:58.095Z,5.36
2022-11-21T12:11:25.383Z,5.93
2022-11-21T12:14:52.463Z,5.66
2022-11-21T12:18:13.913Z,5.79
2022-11-21T12:21:20.709Z,5.84
2022-11-21T12:24:23.309Z,5.81
2022-11-21T12:27:31.845Z,5.98
2022-11-21T12:30:50.255Z,6.02
2022-11-21T12:34:04.494Z,5.74
2022-11-21T12:37:38.752Z,5.61
2022-11-21T12:40:44.462Z,5.54
2022-11-21T12:43:57.396Z,5.29
2022-11-21T12:47:58.365Z,5.23
2022-11-21T12:51:25.506Z,5.35
2022-11-21T12:55:17.328Z,6.04
2022-11-21T12:58:31.245Z,7.55
2022-11-21T13:01:46.588Z,6.88
2022-11-21T13:04:50.160Z,5.99
2022-11-21T13:08:01.451Z,5.88
2022-11-21T13:11:31.169Z,6.15
2022-11-21T13:14:40.148Z,6.09
2022-11-21T13:17:47.456Z,5.94
2022-11-21T13:20:51.508Z,5.84
2022-11-21T13:23:53.973Z,5.77
2022-11-21T13:26:56.956Z,5.79
2022-11-21T13:30:11.455Z,5.77
2022-11-21T13:33:35.641Z,5.74
2022-11-21T13:36:39.256Z,5.53
2022-11-21T13:39:41.722Z,5.37
2022-11-21T13:43:32.031Z,5.29
2022-11-21T13:47:00.900Z,5.10
2022-11-21T13:50:20.600Z,4.87
2022-11-21T13:53:38.359Z,4.77
2022-11-21T13:56:59.080Z,4.39
2022-11-21T14:00:19.904Z,4.54
2022-11-21T14:03:45.378Z,4.45
2022-11-21T14:06:48.415Z,4.38
2022-11-21T14:09:56.190Z,5.03
2022-11-21T14:12:58.902Z,5.96
2022-11-21T14:16:23.953Z,6.39
2022-11-21T14:19:27.584Z,6.20
2022-11-21T14:23:07.498Z,5.68
2022-11-21T14:26:20.183Z,5.36
2022-11-21T14:29:32.584Z,4.90
2022-11-21T14:32:35.090Z,4.64
2022-11-21T14:35:39.950Z,4.35
2022-11-21T14:38:47.551Z,4.24
2022-11-21T14:41:55.863Z,4.04
2022-11-21T14:45:16.578Z,3.99
2022-11-21T14:48:29.356Z,3.84
2022-11-21T14:51:31.937Z,3.70
2022-11-21T14:54:59.941Z,3.70
2022-11-21T14:58:06.180Z,3.75
2022-11-21T15:01:25.902Z,3.53
2022-11-21T15:04:31.993Z,3.53
2022-11-21T15:07:45.548Z,3.13
2022-11-21T15:10:48.151Z,3.34
2022-11-21T15:17:20.597Z,3.30
2022-11-21T15:20:23.523Z,3.07
2022-11-21T15:23:38.467Z,3.00
2022-11-21T15:26:41.227Z,3.01
2022-11-21T15:29:43.653Z,2.52
2022-11-21T15:33:01.820Z,2.34
2022-11-21T15:36:13.988Z,2.11
2022-11-21T15:39:21.986Z,2.18
2022-11-21T15:42:42.517Z,2.40
2022-11-21T15:45:46.984Z,2.26
2022-11-21T15:48:53.834Z,2.05
2022-11-21T15:52:11.530Z,1.79
2022-11-21T15:55:20.080Z,1.59
2022-11-21T15:58:22.774Z,1.61
2022-11-21T16:01:27.580Z,1.33
2022-11-21T16:04:30.176Z,1.43
2022-11-21T16:07:32.690Z,1.61
2022-11-21T16:10:36.247Z,1.62
2022-11-21T16:13:38.706Z,1.74
2022-11-21T16:16:43.517Z,1.70
2022-11-21T16:19:46.142Z,1.65
2022-11-21T16:22:50.006Z,1.85
2022-11-21T16:25:55.484Z,2.31
2022-11-21T16:28:58.983Z,2.33
2022-11-21T16:32:01.524Z,2.20
2022-11-21T16:35:04.733Z,2.01
2022-11-21T16:38:11.349Z,1.78
2022-11-21T16:41:14.068Z,1.65
2022-11-21T16:44:16.712Z,1.47
2022-11-21T16:47:19.122Z,1.38
2022-11-21T16:50:22.111Z,1.97
2022-11-21T16:53:24.759Z,2.38
2022-11-21T16:56:27.644Z,2.39
2022-11-21T16:59:31.535Z,2.44
2022-11-21T17:02:34.391Z,2.38
2022-11-21T17:05:36.874Z,1.75
2022-11-21T17:08:39.591Z,1.50
2022-11-21T17:11:42.955Z,1.34
2022-11-21T17:14:47.519Z,1.68
2022-11-21T17:17:50.107Z,2.00
2022-11-21T17:20:53.033Z,2.21
2022-11-21T17:23:55.927Z,2.35
2022-11-21T17:27:01.101Z,2.04
2022-11-21T17:30:04.248Z,2.06
2022-11-21T17:33:06.942Z,1.82
2022-11-21T17:36:14.037Z,1.54
2022-11-21T17:39:18.137Z,1.34
2022-11-21T17:42:21.061Z,1.37
2022-11-21T17:45:23.870Z,0.74
2022-11-21T17:48:26.741Z,0.27
2022-11-21T17:51:35.025Z,0.15
2022-11-21T17:54:37.578Z,0.22
2022-11-21T17:57:40.171Z,0.31
2022-11-21T18:00:42.603Z,0.37
2022-11-21T18:03:47.064Z,0.44
2022-11-21T18:06:49.897Z,0.18
2022-11-21T18:09:53.068Z,0.48
2022-11-21T18:12:55.824Z,0.51
2022-11-21T18:16:04.229Z,0.82
2022-11-21T18:19:08.533Z,0.95
2022-11-21T18:22:11.242Z,0.99
2022-11-21T18:25:13.888Z,0.95
2022-11-21T18:28:16.350Z,1.00
2022-11-21T18:31:20.869Z,0.97
2022-11-21T18:34:23.368Z,1.17
2022-11-21T18:37:26.078Z,1.27
2022-11-21T18:40:28.748Z,1.35
2022-11-21T18:43:31.595Z,1.57
2022-11-21T18:46:36.432Z,1.68
2022-11-21T18:49:39.156Z,1.13
2022-11-21T18:52:46.443Z,0.18
2022-11-21T18:55:49.595Z,-0.65
2022-11-21T18:58:58.177Z,-0.95
2022-11-21T19:02:01.690Z,-0.96
2022-11-21T19:05:04.708Z,-0.90
2022-11-21T19:08:07.388Z,-0.58
2022-11-21T19:11:11.972Z,-0.11
2022-11-21T19:14:14.757Z,0.20
2022-11-21T19:17:18.311Z,0.10
2022-11-21T19:20:21.119Z,0.30
2022-11-21T19:23:23.782Z,0.27
2022-11-21T19:26:26.421Z,0.52
2022-11-21T19:29:30.317Z,0.39
2022-11-21T19:32:34.219Z,0.42
2022-11-21T19:35:37.739Z,0.51
2022-11-21T19:38:40.513Z,0.64
2022-11-21T19:41:43.631Z,0.82
2022-11-21T19:44:46.272Z,0.76
2022-11-21T19:47:50.153Z,0.88
2022-11-21T19:50:59.263Z,0.72
2022-11-21T19:54:04.111Z,0.60
2022-11-21T19:57:12.433Z,0.31
2022-11-21T20:00:17.260Z,0.20
2022-11-21T20:03:20.571Z,0.21
2022-11-21T20:06:32.312Z,0.28
2022-11-21T20:09:35.031Z,-0.38
2022-11-21T20:12:37.851Z,-0.50
2022-11-21T20:15:40.453Z,-0.47
2022-11-21T20:18:43.020Z,-0.55
2022-11-21T20:21:46.276Z,-0.47
2022-11-21T20:24:51.698Z,-0.42
2022-11-21T20:27:54.696Z,-0.49
2022-11-21T20:31:08.370Z,-0.32
2022-11-21T20:34:13.162Z,-0.23
2022-11-21T20:37:15.923Z,-0.24
2022-11-21T20:40:18.530Z,-0.34
2022-11-21T20:43:21.259Z,-0.34
2022-11-21T20:46:24.298Z,-0.19
2022-11-21T20:49:26.973Z,-0.05
2022-11-21T20:55:53.106Z,0.01
2022-11-21T20:58:56.868Z,-0.34
2022-11-21T21:01:59.443Z,-0.41
2022-11-21T21:05:02.803Z,-0.27
2022-11-21T21:08:05.396Z,-0.35
2022-11-21T21:11:36.702Z,-0.36
2022-11-21T21:14:38.763Z,-0.40
2022-11-21T21:17:41.205Z,-0.50
2022-11-21T21:21:09.446Z,-0.38
2022-11-21T21:24:07.807Z,-0.25
2022-11-21T21:27:10.540Z,-0.28
2022-11-21T21:30:13.920Z,-0.22
2022-11-21T21:33:16.647Z,-0.52
2022-11-21T21:36:21.338Z,-0.37
2022-11-21T21:39:24.464Z,0.04
2022-11-21T21:42:27.071Z,-0.34
2022-11-21T21:45:29.481Z,-0.71
2022-11-21T21:48:32.026Z,-0.94
2022-11-21T21:51:36.762Z,-0.83
2022-11-21T21:54:39.508Z,-0.78
2022-11-21T21:57:48.290Z,-0.58
2022-11-21T22:00:54.561Z,-0.40
2022-11-21T22:03:59.100Z,-0.10
2022-11-21T22:07:02.780Z,-0.30
2022-11-21T22:10:06.261Z,-0.34
2022-11-21T22:13:08.926Z,-0.01
2022-11-21T22:16:12.677Z,0.04
2022-11-21T22:19:15.734Z,-0.11
2022-11-21T22:22:18.286Z,0.02
2022-11-21T22:25:20.793Z,0.18
2022-11-21T22:28:24.044Z,0.14
2022-11-21T22:31:26.402Z,0.06
2022-11-21T22:34:29.311Z,0.18
2022-11-21T22:37:31.894Z,0.10
2022-11-21T22:40:34.471Z,0.03
2022-11-21T22:43:36.914Z,-0.09
2022-11-21T22:46:39.298Z,-0.16
2022-11-21T22:49:41.926Z,-0.24
2022-11-21T22:52:44.475Z,-0.52
2022-11-21T22:56:02.102Z,-0.35
2022-11-21T22:59:04.741Z,-0.47
2022-11-21T23:02:07.205Z,-0.38
2022-11-21T23:05:09.770Z,-0.47
2022-11-21T23:08:12.159Z,-0.47
2022-11-21T23:11:19.361Z,-0.60
2022-11-21T23:14:21.760Z,-0.50
2022-11-21T23:17:24.165Z,-0.66
2022-11-21T23:20:26.643Z,-0.73
2022-11-21T23:23:29.245Z,-1.11
2022-11-21T23:26:31.695Z,-1.19
2022-11-21T23:29:34.113Z,-1.33
2022-11-21T23:32:36.523Z,-1.38
2022-11-21T23:35:38.908Z,-1.28
2022-11-21T23:38:41.735Z,-1.38
2022-11-21T23:41:44.125Z,-1.08
2022-11-21T23:44:47.681Z,-1.01
2022-11-21T23:47:50.081Z,-0.73
2022-11-21T23:50:52.548Z,-0.66
2022-11-21T23:53:55.088Z,-0.64
2022-11-21T23:56:57.501Z,-0.45
2022-11-21T23:59:59.956Z,-0.38
